createdAt,value
2018-11-02T00:00:29.703Z,0
2018-11-02T00:01:29.050Z,0
2018-11-02T00:02:29.863Z,0
2018-11-02T00:03:29.377Z,0
2018-11-02T00:04:29.122Z,0
2018-11-02T00:05:29.603Z,0
2018-11-02T00:06:29.593Z,0
2018-11-02T00:07:29.249Z,0
2018-11-02T00:08:29.667Z,0
2018-11-02T00:09:29.599Z,0
2018-11-02T00:10:52.700Z,0
2018-11-02T00:11:53.485Z,0
2018-11-02T00:12:53.146Z,0
2018-11-02T00:14:16.413Z,0
2018-11-02T00:15:17.675Z,0
2018-11-02T00:16:40.485Z,0
2018-11-02T00:17:41.072Z,0
2018-11-02T00:18:40.913Z,0
2018-11-02T00:20:51.710Z,0
2018-11-02T00:21:52.349Z,0
2018-11-02T00:22:52.007Z,0
2018-11-02T00:23:52.724Z,0
2018-11-02T00:24:52.508Z,0
2018-11-02T00:25:52.094Z,0
2018-11-02T00:26:52.418Z,0
2018-11-02T00:27:51.974Z,0
2018-11-02T00:28:52.304Z,0
2018-11-02T00:29:51.846Z,0
2018-11-02T00:30:52.371Z,0
2018-11-02T00:31:52.246Z,0
2018-11-02T00:32:51.774Z,0
2018-11-02T00:33:52.318Z,0
2018-11-02T00:34:52.073Z,0
2018-11-02T00:35:51.661Z,0
2018-11-02T00:36:52.124Z,0
2018-11-02T00:37:51.824Z,0
2018-11-02T00:38:52.445Z,0
2018-11-02T00:39:51.901Z,0
2018-11-02T00:40:52.284Z,0
2018-11-02T00:41:51.795Z,0
2018-11-02T00:42:52.393Z,0
2018-11-02T00:43:51.856Z,0
2018-11-02T00:44:52.035Z,0
2018-11-02T00:45:52.546Z,0
2018-11-02T00:47:13.283Z,0
2018-11-02T00:48:56.246Z,0
2018-11-02T00:49:56.666Z,0
2018-11-02T00:50:57.362Z,0
2018-11-02T00:51:56.765Z,0
2018-11-02T00:52:56.379Z,0
2018-11-02T00:53:56.813Z,0
2018-11-02T00:54:57.422Z,0
2018-11-02T00:55:56.674Z,0
2018-11-02T00:56:57.161Z,0
2018-11-02T00:58:19.743Z,0
2018-11-02T00:59:20.656Z,0
2018-11-02T01:00:20.740Z,0
2018-11-02T01:02:04.301Z,0
2018-11-02T01:03:28.547Z,0
2018-11-02T01:04:28.937Z,0
2018-11-02T01:05:29.253Z,0
2018-11-02T01:06:29.562Z,0
2018-11-02T01:07:28.786Z,0
2018-11-02T01:08:28.626Z,0
2018-11-02T01:09:29.316Z,0
2018-11-02T01:10:28.721Z,0
2018-11-02T01:11:29.425Z,0
2018-11-02T01:12:28.935Z,0
2018-11-02T01:13:28.479Z,0
2018-11-02T01:14:28.961Z,0
2018-11-02T01:15:49.509Z,0
2018-11-02T01:16:49.983Z,0
2018-11-02T01:17:51.306Z,0
2018-11-02T01:18:49.842Z,0
2018-11-02T01:19:50.054Z,0
2018-11-02T01:20:50.551Z,0
2018-11-02T01:22:11.650Z,0
2018-11-02T01:23:12.391Z,0
2018-11-02T01:24:12.196Z,0
2018-11-02T01:25:12.128Z,0
2018-11-02T01:26:12.667Z,0
2018-11-02T01:27:12.097Z,0
2018-11-02T01:28:33.687Z,0
2018-11-02T01:29:55.876Z,0
2018-11-02T01:30:56.225Z,0
2018-11-02T01:31:56.597Z,0
2018-11-02T01:32:56.501Z,0
2018-11-02T01:33:55.956Z,0
2018-11-02T01:34:56.522Z,0
2018-11-02T01:35:56.121Z,0
2018-11-02T01:37:18.191Z,0
2018-11-02T01:38:18.698Z,0
2018-11-02T01:39:18.297Z,0
2018-11-02T01:40:18.696Z,0
2018-11-02T01:41:17.987Z,0
2018-11-02T01:42:18.727Z,0
2018-11-02T01:43:17.995Z,0
2018-11-02T01:44:18.595Z,0
2018-11-02T01:45:18.019Z,0
2018-11-02T01:46:18.616Z,0
2018-11-02T01:47:18.402Z,0
2018-11-02T01:48:18.758Z,0
2018-11-02T01:49:18.250Z,0
2018-11-02T01:50:18.679Z,0
2018-11-02T01:51:17.955Z,0
2018-11-02T01:52:18.508Z,0
2018-11-02T01:53:18.080Z,0
2018-11-02T01:54:18.619Z,0
2018-11-02T01:55:18.019Z,0
2018-11-02T01:56:18.435Z,0
2018-11-02T01:57:18.030Z,0
2018-11-02T01:58:18.364Z,0
2018-11-02T01:59:18.722Z,0
2018-11-02T02:00:18.257Z,0
2018-11-02T02:01:18.741Z,0
2018-11-02T02:02:18.329Z,0
2018-11-02T02:03:18.569Z,0
2018-11-02T02:04:18.055Z,0
2018-11-02T02:05:18.619Z,0
2018-11-02T02:06:39.048Z,0
2018-11-02T02:07:39.429Z,0
2018-11-02T02:08:39.904Z,0
2018-11-02T02:09:39.298Z,0
2018-11-02T02:10:39.884Z,0
2018-11-02T02:11:39.721Z,0
2018-11-02T02:12:39.268Z,0
2018-11-02T02:13:39.672Z,0
2018-11-02T02:14:39.107Z,0
2018-11-02T02:16:01.000Z,0
2018-11-02T02:17:24.509Z,0
2018-11-02T02:18:24.950Z,0
2018-11-02T02:19:24.552Z,0
2018-11-02T02:20:24.915Z,0
2018-11-02T02:21:25.252Z,0
2018-11-02T02:22:24.555Z,0
2018-11-02T02:23:25.254Z,0
2018-11-02T02:24:24.799Z,0
2018-11-02T02:25:25.385Z,0
2018-11-02T02:26:24.772Z,0
2018-11-02T02:27:25.067Z,0
2018-11-02T02:28:25.528Z,0
2018-11-02T02:29:25.213Z,0
2018-11-02T02:30:24.566Z,0
2018-11-02T02:31:24.829Z,0
2018-11-02T02:32:25.061Z,0
2018-11-02T02:33:46.388Z,0
2018-11-02T02:34:46.669Z,0
2018-11-02T02:35:46.922Z,0
2018-11-02T02:36:47.267Z,0
2018-11-02T02:37:46.673Z,0
2018-11-02T02:38:47.165Z,0
2018-11-02T02:39:46.545Z,0
2018-11-02T02:40:46.984Z,0
2018-11-02T02:41:46.612Z,0
2018-11-02T02:43:08.333Z,0
2018-11-02T02:44:08.905Z,0
2018-11-02T02:45:08.507Z,0
2018-11-02T02:46:30.412Z,0
2018-11-02T02:47:30.503Z,0
2018-11-02T02:48:31.004Z,0
2018-11-02T02:49:30.479Z,0
2018-11-02T02:50:54.364Z,0
2018-11-02T02:51:54.970Z,0
2018-11-02T02:53:16.556Z,0
2018-11-02T02:54:16.929Z,0
2018-11-02T02:55:17.565Z,0
2018-11-02T02:56:16.975Z,0
2018-11-02T02:57:16.559Z,0
2018-11-02T02:58:16.381Z,0
2018-11-02T02:59:16.617Z,0
2018-11-02T03:00:17.079Z,0
2018-11-02T03:01:16.549Z,0
2018-11-02T03:02:16.895Z,0
2018-11-02T03:03:17.399Z,0
2018-11-02T03:04:16.996Z,0
2018-11-02T03:05:17.279Z,0
2018-11-02T03:06:16.804Z,0
2018-11-02T03:07:17.139Z,0
2018-11-02T03:08:16.452Z,0
2018-11-02T03:09:37.690Z,0
2018-11-02T03:10:38.355Z,0
2018-11-02T03:11:38.745Z,0
2018-11-02T03:12:59.359Z,0
2018-11-02T03:13:59.998Z,0
2018-11-02T03:14:59.385Z,0
2018-11-02T03:16:00.304Z,0
2018-11-02T03:16:59.578Z,0
2018-11-02T03:17:59.918Z,0
2018-11-02T03:19:21.213Z,0
2018-11-02T03:20:21.889Z,0
2018-11-02T03:21:21.586Z,0
2018-11-02T03:22:22.049Z,0
2018-11-02T03:23:22.272Z,0
2018-11-02T03:24:21.864Z,0
2018-11-02T03:25:22.324Z,0
2018-11-02T03:26:42.833Z,0
2018-11-02T03:27:42.936Z,0
2018-11-02T03:28:43.397Z,0
2018-11-02T03:29:42.761Z,0
2018-11-02T03:31:04.628Z,0
2018-11-02T03:32:26.270Z,0
2018-11-02T03:33:26.648Z,0
2018-11-02T03:34:27.048Z,0
2018-11-02T03:35:47.349Z,0
2018-11-02T03:36:47.613Z,0
2018-11-02T03:37:48.047Z,0
2018-11-02T03:38:47.539Z,0
2018-11-02T03:39:47.852Z,0
2018-11-02T03:40:48.246Z,0
2018-11-02T03:41:47.715Z,0
2018-11-02T03:42:47.915Z,0
2018-11-02T03:43:49.146Z,0
2018-11-02T03:44:48.447Z,0
2018-11-02T03:45:47.856Z,0
2018-11-02T03:46:48.344Z,0
2018-11-02T03:47:47.576Z,0
2018-11-02T03:48:48.165Z,0
2018-11-02T03:49:48.695Z,0
2018-11-02T03:50:49.343Z,0
2018-11-02T03:51:47.789Z,0
2018-11-02T03:52:48.489Z,0
2018-11-02T03:53:48.676Z,0
2018-11-02T03:55:34.580Z,0
2018-11-02T03:56:37.203Z,0
2018-11-02T03:57:34.658Z,0
2018-11-02T03:58:34.989Z,0
2018-11-02T03:59:35.558Z,0
2018-11-02T04:00:37.434Z,0
2018-11-02T04:01:35.015Z,0
2018-11-02T04:02:34.882Z,0
2018-11-02T04:03:34.281Z,0
2018-11-02T04:04:34.649Z,0
2018-11-02T04:05:34.811Z,0
2018-11-02T04:06:35.078Z,0
2018-11-02T04:07:34.423Z,0
2018-11-02T04:08:34.912Z,0
2018-11-02T04:09:34.554Z,0
2018-11-02T04:10:35.159Z,0
2018-11-02T04:11:55.888Z,0
2018-11-02T04:12:56.410Z,0
2018-11-02T04:13:55.872Z,0
2018-11-02T04:15:17.146Z,0
2018-11-02T04:16:17.537Z,0
2018-11-02T04:17:17.850Z,0
2018-11-02T04:18:17.435Z,0
2018-11-02T04:19:18.114Z,0
2018-11-02T04:20:17.460Z,0
2018-11-02T04:21:17.913Z,0
2018-11-02T04:22:17.396Z,0
2018-11-02T04:23:17.814Z,0
2018-11-02T04:24:17.224Z,0
2018-11-02T04:25:17.771Z,0
2018-11-02T04:26:17.249Z,0
2018-11-02T04:27:17.864Z,0
2018-11-02T04:28:17.226Z,0
2018-11-02T04:29:39.021Z,0
2018-11-02T04:30:39.311Z,0
2018-11-02T04:31:39.486Z,0
2018-11-02T04:32:39.058Z,0
2018-11-02T04:33:39.807Z,0
2018-11-02T04:34:39.228Z,0
2018-11-02T04:35:39.589Z,0
2018-11-02T04:36:39.151Z,0
2018-11-02T04:37:39.545Z,0
2018-11-02T04:38:39.032Z,0
2018-11-02T04:39:39.545Z,0
2018-11-02T04:40:39.075Z,0
2018-11-02T04:42:00.699Z,0
2018-11-02T04:43:01.220Z,0
2018-11-02T04:44:44.282Z,0
2018-11-02T04:45:44.703Z,0
2018-11-02T04:46:44.182Z,0
2018-11-02T04:47:44.604Z,0
2018-11-02T04:48:45.286Z,0
2018-11-02T04:49:44.811Z,0
2018-11-02T04:51:05.332Z,0
2018-11-02T04:52:05.583Z,0
2018-11-02T04:53:06.137Z,0
2018-11-02T04:54:05.513Z,0
2018-11-02T04:55:05.959Z,0
2018-11-02T04:56:05.572Z,0
2018-11-02T04:57:06.146Z,0
2018-11-02T04:58:05.559Z,0
2018-11-02T04:59:11.015Z,0
2018-11-02T05:00:20.227Z,0
2018-11-02T05:01:06.162Z,0
2018-11-02T05:02:28.690Z,0
2018-11-02T05:03:29.246Z,0
2018-11-02T05:04:28.847Z,0
2018-11-02T05:05:29.369Z,0
2018-11-02T05:06:28.670Z,0
2018-11-02T05:07:29.206Z,0
2018-11-02T05:08:29.659Z,0
2018-11-02T05:09:29.247Z,0
2018-11-02T05:10:52.033Z,0
2018-11-02T05:11:52.477Z,0
2018-11-02T05:12:51.866Z,0
2018-11-02T05:13:52.220Z,0
2018-11-02T05:14:52.661Z,0
2018-11-02T05:15:52.148Z,0
2018-11-02T05:16:52.125Z,0
2018-11-02T05:17:52.517Z,0
2018-11-02T05:18:52.043Z,0
2018-11-02T05:19:52.351Z,0
2018-11-02T05:20:51.898Z,0
2018-11-02T05:21:52.534Z,0
2018-11-02T05:22:51.969Z,0
2018-11-02T05:23:52.552Z,0
2018-11-02T05:24:51.959Z,0
2018-11-02T05:25:52.196Z,0
2018-11-02T05:26:51.952Z,0
2018-11-02T05:27:52.286Z,0
2018-11-02T05:28:52.680Z,0
2018-11-02T05:29:51.987Z,0
2018-11-02T05:30:52.631Z,0
2018-11-02T05:31:53.057Z,0
2018-11-02T05:32:52.524Z,0
2018-11-02T05:34:14.370Z,0
2018-11-02T05:35:13.787Z,0
2018-11-02T05:36:35.502Z,0
2018-11-02T05:37:36.007Z,0
2018-11-02T05:38:36.279Z,0
2018-11-02T05:39:36.065Z,0
2018-11-02T05:40:56.641Z,0
2018-11-02T05:42:41.186Z,0
2018-11-02T05:43:41.656Z,0
2018-11-02T05:44:41.946Z,0
2018-11-02T05:45:41.823Z,0
2018-11-02T05:47:04.401Z,0
2018-11-02T05:48:04.995Z,0
2018-11-02T05:49:04.765Z,0
2018-11-02T05:50:05.103Z,0
2018-11-02T05:51:04.665Z,0
2018-11-02T05:52:04.999Z,0
2018-11-02T05:53:04.493Z,0
2018-11-02T05:54:05.206Z,0
2018-11-02T05:55:04.681Z,0
2018-11-02T05:56:28.259Z,0
2018-11-02T05:57:28.563Z,0
2018-11-02T05:58:52.457Z,0
2018-11-02T06:00:16.422Z,0
2018-11-02T06:01:17.007Z,0
2018-11-02T06:02:16.523Z,0
2018-11-02T06:03:17.137Z,0
2018-11-02T06:04:39.878Z,0
2018-11-02T06:05:40.515Z,0
2018-11-02T06:06:40.094Z,0
2018-11-02T06:07:40.844Z,0
2018-11-02T06:08:40.463Z,0
2018-11-02T06:10:03.242Z,0
2018-11-02T06:11:03.742Z,0
2018-11-02T06:12:04.085Z,0
2018-11-02T06:13:03.423Z,0
2018-11-02T06:14:03.979Z,0
2018-11-02T06:15:03.502Z,0
2018-11-02T06:16:03.767Z,0
2018-11-02T06:17:03.318Z,0
2018-11-02T06:18:03.752Z,0
2018-11-02T06:19:04.186Z,0
2018-11-02T06:20:04.202Z,0
2018-11-02T06:21:03.840Z,0
2018-11-02T06:22:26.824Z,0
2018-11-02T06:23:27.218Z,0
2018-11-02T06:24:27.891Z,1
2018-11-02T06:25:27.518Z,1
2018-11-02T06:26:26.833Z,1
2018-11-02T06:27:27.380Z,1
2018-11-02T06:28:26.763Z,1
2018-11-02T06:29:27.385Z,1
2018-11-02T06:30:26.929Z,2
2018-11-02T06:31:27.377Z,2
2018-11-02T06:32:26.997Z,2
2018-11-02T06:33:27.667Z,3
2018-11-02T06:34:27.810Z,3
2018-11-02T06:35:50.766Z,3
2018-11-02T06:37:37.535Z,4
2018-11-02T06:38:38.025Z,4
2018-11-02T06:39:38.240Z,4
2018-11-02T06:40:37.830Z,4
2018-11-02T06:41:38.507Z,4
2018-11-02T06:42:37.932Z,4
2018-11-02T06:43:38.434Z,4
2018-11-02T06:44:37.948Z,4
2018-11-02T06:45:37.422Z,4
2018-11-02T06:47:01.506Z,5
2018-11-02T06:48:01.949Z,4
2018-11-02T06:49:01.345Z,4
2018-11-02T06:50:01.894Z,4
2018-11-02T06:51:24.947Z,4
2018-11-02T06:52:25.607Z,3
2018-11-02T06:53:25.087Z,4
2018-11-02T06:54:26.159Z,4
2018-11-02T06:55:25.444Z,4
2018-11-02T06:56:25.937Z,3
2018-11-02T06:57:25.383Z,3
2018-11-02T06:58:25.069Z,3
2018-11-02T06:59:25.764Z,4
2018-11-02T07:00:25.559Z,4
2018-11-02T07:01:25.147Z,4
2018-11-02T07:02:25.607Z,5
2018-11-02T07:03:24.975Z,5
2018-11-02T07:04:25.494Z,5
2018-11-02T07:05:25.061Z,5
2018-11-02T07:06:25.793Z,5
2018-11-02T07:07:25.241Z,6
2018-11-02T07:08:25.936Z,8
2018-11-02T07:09:25.374Z,9
2018-11-02T07:10:25.809Z,9
2018-11-02T07:11:25.518Z,8
2018-11-02T07:12:26.048Z,11
2018-11-02T07:13:25.729Z,14
2018-11-02T07:14:25.416Z,16
2018-11-02T07:15:25.248Z,18
2018-11-02T07:16:25.702Z,17
2018-11-02T07:17:48.297Z,16
2018-11-02T07:18:48.866Z,15
2018-11-02T07:19:48.455Z,12
2018-11-02T07:20:49.066Z,9
2018-11-02T07:22:12.186Z,8
2018-11-02T07:23:13.085Z,7
2018-11-02T07:24:12.773Z,7
2018-11-02T07:25:13.133Z,7
2018-11-02T07:26:12.835Z,7
2018-11-02T07:27:35.428Z,8
2018-11-02T07:28:35.928Z,9
2018-11-02T07:29:36.538Z,9
2018-11-02T07:30:36.227Z,9
2018-11-02T07:31:35.923Z,10
2018-11-02T07:32:35.732Z,10
2018-11-02T07:33:36.396Z,9
2018-11-02T07:34:36.122Z,9
2018-11-02T07:35:37.246Z,11
2018-11-02T07:36:36.084Z,12
2018-11-02T07:37:36.340Z,11
2018-11-02T07:38:36.152Z,10
2018-11-02T07:39:36.122Z,10
2018-11-02T07:40:35.679Z,8
2018-11-02T07:41:36.427Z,8
2018-11-02T07:42:35.854Z,7
2018-11-02T07:43:36.555Z,6
2018-11-02T07:44:36.367Z,6
2018-11-02T07:45:36.189Z,6
2018-11-02T07:46:35.610Z,7
2018-11-02T07:47:36.328Z,7
2018-11-02T07:48:36.418Z,6
2018-11-02T07:49:36.236Z,7
2018-11-02T07:50:35.982Z,8
2018-11-02T07:51:35.685Z,10
2018-11-02T07:52:36.369Z,10
2018-11-02T07:53:36.035Z,13
2018-11-02T07:54:35.420Z,14
2018-11-02T07:55:36.568Z,11
2018-11-02T07:56:36.337Z,11
2018-11-02T07:57:36.114Z,10
2018-11-02T07:58:35.939Z,11
2018-11-02T07:59:36.720Z,11
2018-11-02T08:00:36.121Z,9
2018-11-02T08:01:35.963Z,10
2018-11-02T08:02:35.757Z,12
2018-11-02T08:03:35.519Z,12
2018-11-02T08:04:36.355Z,12
2018-11-02T08:05:35.843Z,12
2018-11-02T08:06:36.231Z,13
2018-11-02T08:07:36.308Z,14
2018-11-02T08:08:35.819Z,13
2018-11-02T08:09:35.682Z,12
2018-11-02T08:10:36.126Z,10
2018-11-02T08:11:35.613Z,7
2018-11-02T08:12:36.215Z,7
2018-11-02T08:13:35.844Z,8
2018-11-02T08:14:36.123Z,10
2018-11-02T08:15:35.725Z,11
2018-11-02T08:16:36.370Z,12
2018-11-02T08:17:59.143Z,11
2018-11-02T08:18:59.730Z,11
2018-11-02T08:19:59.711Z,11
2018-11-02T08:20:59.455Z,17
2018-11-02T08:22:00.042Z,21
2018-11-02T08:22:59.884Z,19
2018-11-02T08:23:59.580Z,17
2018-11-02T08:24:59.495Z,20
2018-11-02T08:26:00.209Z,22
2018-11-02T08:27:00.086Z,21
2018-11-02T08:28:23.100Z,21
2018-11-02T08:29:23.829Z,21
2018-11-02T08:30:23.555Z,23
2018-11-02T08:31:24.178Z,21
2018-11-02T08:32:23.834Z,19
2018-11-02T08:33:26.584Z,19
2018-11-02T08:34:46.621Z,19
2018-11-02T08:35:47.260Z,20
2018-11-02T08:37:10.896Z,22
2018-11-02T08:38:11.673Z,26
2018-11-02T08:39:35.662Z,32
2018-11-02T08:40:36.668Z,36
2018-11-02T08:41:35.212Z,37
2018-11-02T08:42:57.904Z,35
2018-11-02T08:43:58.129Z,35
2018-11-02T08:44:58.328Z,36
2018-11-02T08:45:58.913Z,36
2018-11-02T08:47:02.124Z,36
2018-11-02T08:47:58.418Z,38
2018-11-02T08:48:59.051Z,46
2018-11-02T08:49:58.537Z,54
2018-11-02T08:50:58.023Z,54
2018-11-02T08:51:58.508Z,45
2018-11-02T08:53:21.354Z,36
2018-11-02T08:54:22.087Z,35
2018-11-02T08:55:21.539Z,37
2018-11-02T08:56:22.289Z,37
2018-11-02T08:57:21.778Z,39
2018-11-02T08:58:45.751Z,47
2018-11-02T08:59:45.735Z,55
2018-11-02T09:00:46.377Z,65
2018-11-02T09:01:45.875Z,78
2018-11-02T09:02:46.581Z,86
2018-11-02T09:04:09.404Z,71
2018-11-02T09:05:33.530Z,69
2018-11-02T09:06:33.764Z,72
2018-11-02T09:07:34.603Z,82
2018-11-02T09:08:34.342Z,91
2018-11-02T09:09:57.462Z,97
2018-11-02T09:10:58.182Z,95
2018-11-02T09:11:57.859Z,94
2018-11-02T09:12:57.708Z,89
2018-11-02T09:13:58.392Z,90
2018-11-02T09:15:21.481Z,94
2018-11-02T09:16:44.982Z,96
2018-11-02T09:17:45.662Z,91
2018-11-02T09:18:45.281Z,80
2018-11-02T09:19:45.934Z,73
2018-11-02T09:20:45.513Z,72
2018-11-02T09:21:45.291Z,77
2018-11-02T09:23:09.132Z,93
2018-11-02T09:25:19.855Z,138
2018-11-02T09:26:20.498Z,145
2018-11-02T09:27:20.264Z,134
2018-11-02T09:28:19.991Z,127
2018-11-02T09:29:44.285Z,106
2018-11-02T09:31:07.103Z,92
2018-11-02T09:31:44.704Z,80
2018-11-02T09:32:44.183Z,72
2018-11-02T09:33:44.619Z,68
2018-11-02T09:34:44.300Z,55
2018-11-02T09:35:44.848Z,53
2018-11-02T09:36:44.418Z,54
2018-11-02T09:37:45.050Z,52
2018-11-02T09:38:44.682Z,61
2018-11-02T09:39:44.940Z,61
2018-11-02T09:40:44.502Z,66
2018-11-02T09:41:44.982Z,72
2018-11-02T09:42:44.533Z,73
2018-11-02T09:43:53.955Z,73
2018-11-02T09:44:54.218Z,72
2018-11-02T09:45:55.486Z,77
2018-11-02T09:46:55.490Z,79
2018-11-02T09:47:55.988Z,83
2018-11-02T09:48:55.328Z,84
2018-11-02T09:49:55.256Z,85
2018-11-02T09:50:56.696Z,74
2018-11-02T09:51:55.407Z,78
2018-11-02T09:52:55.509Z,71
2018-11-02T09:54:28.717Z,75
2018-11-02T09:55:30.349Z,75
2018-11-02T09:56:29.905Z,73
2018-11-02T09:57:27.927Z,73
2018-11-02T09:58:28.332Z,76
2018-11-02T09:59:19.116Z,80
2018-11-02T10:00:18.805Z,82
2018-11-02T10:01:18.614Z,107
2018-11-02T10:02:19.493Z,89
2018-11-02T10:03:42.426Z,92
2018-11-02T10:04:43.204Z,88
2018-11-02T10:05:42.874Z,79
2018-11-02T10:07:29.329Z,91
2018-11-02T10:08:29.945Z,93
2018-11-02T10:09:29.784Z,95
2018-11-02T10:10:29.450Z,96
2018-11-02T10:11:30.049Z,99
2018-11-02T10:12:30.191Z,104
2018-11-02T10:13:30.090Z,109
2018-11-02T10:14:29.732Z,113
2018-11-02T10:15:30.317Z,117
2018-11-02T10:16:29.986Z,126
2018-11-02T10:17:29.877Z,138
2018-11-02T10:19:37.931Z,153
2018-11-02T10:21:01.994Z,152
2018-11-02T10:22:02.553Z,147
2018-11-02T10:23:02.398Z,142
2018-11-02T10:24:02.896Z,141
2018-11-02T10:25:02.642Z,143
2018-11-02T10:26:02.458Z,149
2018-11-02T10:27:02.016Z,157
2018-11-02T10:28:02.732Z,162
2018-11-02T10:29:02.301Z,168
2018-11-02T10:30:02.031Z,173
2018-11-02T10:31:02.484Z,173
2018-11-02T10:32:02.109Z,201
2018-11-02T10:33:02.610Z,193
2018-11-02T10:34:02.268Z,169
2018-11-02T10:35:02.873Z,200
2018-11-02T10:36:02.392Z,309
2018-11-02T10:37:02.118Z,309
2018-11-02T10:38:47.376Z,311
2018-11-02T10:39:48.208Z,313
2018-11-02T10:40:47.635Z,311
2018-11-02T10:41:47.943Z,322
2018-11-02T10:42:47.420Z,336
2018-11-02T10:43:48.205Z,328
2018-11-02T10:44:47.745Z,329
2018-11-02T10:45:48.168Z,345
2018-11-02T10:47:09.007Z,352
2018-11-02T10:48:09.657Z,250
2018-11-02T10:49:09.269Z,110
2018-11-02T10:50:09.887Z,113
2018-11-02T10:51:09.797Z,113
2018-11-02T10:52:30.759Z,109
2018-11-02T10:53:31.563Z,105
2018-11-02T10:54:31.601Z,97
2018-11-02T10:55:31.238Z,86
2018-11-02T10:56:32.011Z,77
2018-11-02T10:57:31.113Z,72
2018-11-02T10:58:53.135Z,66
2018-11-02T10:59:54.072Z,63
2018-11-02T11:00:53.313Z,63
2018-11-02T11:01:53.255Z,64
2018-11-02T11:02:52.962Z,65
2018-11-02T11:03:53.522Z,65
2018-11-02T11:04:53.271Z,62
2018-11-02T11:05:52.979Z,56
2018-11-02T11:06:53.552Z,56
2018-11-02T11:07:52.937Z,60
2018-11-02T11:08:53.371Z,65
2018-11-02T11:09:52.943Z,72
2018-11-02T11:10:53.728Z,82
2018-11-02T11:11:53.400Z,84
2018-11-02T11:12:53.355Z,81
2018-11-02T11:13:53.182Z,77
2018-11-02T11:14:52.807Z,75
2018-11-02T11:15:53.301Z,75
2018-11-02T11:16:52.842Z,76
2018-11-02T11:18:16.488Z,81
2018-11-02T11:19:38.241Z,85
2018-11-02T11:21:21.302Z,88
2018-11-02T11:22:43.084Z,91
2018-11-02T11:23:43.514Z,93
2018-11-02T11:24:43.995Z,96
2018-11-02T11:25:43.443Z,101
2018-11-02T11:26:44.045Z,104
2018-11-02T11:27:44.174Z,105
2018-11-02T11:28:43.806Z,107
2018-11-02T11:29:43.364Z,109
2018-11-02T11:30:44.030Z,110
2018-11-02T11:31:43.568Z,109
2018-11-02T11:32:43.138Z,110
2018-11-02T11:33:43.616Z,112
2018-11-02T11:34:44.076Z,116
2018-11-02T11:35:43.519Z,122
2018-11-02T11:36:44.031Z,122
2018-11-02T11:37:43.758Z,120
2018-11-02T11:38:43.717Z,119
2018-11-02T11:40:06.852Z,108
2018-11-02T11:41:28.507Z,101
2018-11-02T11:42:29.459Z,102
2018-11-02T11:43:28.966Z,105
2018-11-02T11:44:30.136Z,105
2018-11-02T11:45:29.515Z,104
2018-11-02T11:46:29.491Z,117
2018-11-02T11:47:51.478Z,119
2018-11-02T11:48:51.389Z,126
2018-11-02T11:49:51.258Z,128
2018-11-02T11:51:12.447Z,112
2018-11-02T11:52:34.641Z,103
2018-11-02T11:53:56.920Z,113
2018-11-02T11:54:57.547Z,117
2018-11-02T11:55:57.303Z,115
2018-11-02T11:56:56.903Z,107
2018-11-02T11:57:57.390Z,95
2018-11-02T11:58:57.136Z,88
2018-11-02T11:59:57.821Z,85
2018-11-02T12:00:57.439Z,77
2018-11-02T12:01:57.104Z,64
2018-11-02T12:02:57.620Z,54
2018-11-02T12:03:57.099Z,54
2018-11-02T12:04:57.639Z,60
2018-11-02T12:05:57.357Z,66
2018-11-02T12:07:18.376Z,71
2018-11-02T12:08:40.188Z,77
2018-11-02T12:09:40.785Z,80
2018-11-02T12:10:40.491Z,82
2018-11-02T12:11:41.207Z,84
2018-11-02T12:12:41.596Z,86
2018-11-02T12:13:41.207Z,89
2018-11-02T12:14:49.843Z,91
2018-11-02T12:15:50.764Z,97
2018-11-02T12:16:49.872Z,105
2018-11-02T12:17:51.257Z,111
2018-11-02T12:18:53.424Z,113
2018-11-02T12:21:29.909Z,120
2018-11-02T12:22:29.979Z,121
2018-11-02T12:23:30.105Z,121
2018-11-02T12:24:30.397Z,121
2018-11-02T12:25:30.319Z,119
2018-11-02T12:26:42.032Z,112
2018-11-02T12:27:42.767Z,108
2018-11-02T12:28:42.740Z,99
2018-11-02T12:29:42.513Z,89
2018-11-02T12:30:42.362Z,81
2018-11-02T12:31:42.228Z,75
2018-11-02T12:32:41.877Z,71
2018-11-02T12:33:42.395Z,71
2018-11-02T12:34:42.055Z,73
2018-11-02T12:35:42.779Z,80
2018-11-02T12:36:42.350Z,85
2018-11-02T12:38:03.711Z,89
2018-11-02T12:39:04.333Z,86
2018-11-02T12:40:04.117Z,82
2018-11-02T12:41:03.820Z,75
2018-11-02T12:42:04.393Z,70
2018-11-02T12:43:04.952Z,67
2018-11-02T12:44:04.747Z,60
2018-11-02T12:45:49.595Z,50
2018-11-02T12:46:50.488Z,47
2018-11-02T12:47:50.380Z,44
2018-11-02T12:48:50.556Z,43
2018-11-02T12:49:50.052Z,43
2018-11-02T12:51:11.874Z,42
2018-11-02T12:52:11.735Z,40
2018-11-02T12:53:35.988Z,33
2018-11-02T12:54:35.884Z,28
2018-11-02T12:55:36.705Z,27
2018-11-02T12:56:36.297Z,28
2018-11-02T12:57:36.196Z,30
2018-11-02T12:58:36.274Z,37
2018-11-02T12:59:35.981Z,43
2018-11-02T13:00:36.471Z,46
2018-11-02T13:01:36.148Z,46
2018-11-02T13:02:36.861Z,46
2018-11-02T13:03:36.211Z,44
2018-11-02T13:04:35.999Z,44
2018-11-02T13:05:36.573Z,46
2018-11-02T13:06:36.281Z,50
2018-11-02T13:07:36.077Z,53
2018-11-02T13:08:35.988Z,54
2018-11-02T13:09:37.356Z,56
2018-11-02T13:10:35.904Z,59
2018-11-02T13:11:36.524Z,61
2018-11-02T13:13:21.037Z,63
2018-11-02T13:14:21.730Z,66
2018-11-02T13:15:21.449Z,71
2018-11-02T13:16:21.379Z,78
2018-11-02T13:17:20.950Z,84
2018-11-02T13:18:21.817Z,89
2018-11-02T13:19:21.535Z,94
2018-11-02T13:20:21.567Z,97
2018-11-02T13:21:25.013Z,100
2018-11-02T13:22:21.841Z,101
2018-11-02T13:23:43.521Z,102
2018-11-02T13:25:05.679Z,109
2018-11-02T13:26:06.781Z,115
2018-11-02T13:27:06.733Z,114
2018-11-02T13:28:06.491Z,107
2018-11-02T13:29:29.715Z,99
2018-11-02T13:30:30.566Z,95
2018-11-02T13:31:30.740Z,88
2018-11-02T13:32:29.674Z,81
2018-11-02T13:33:52.093Z,70
2018-11-02T13:35:35.569Z,67
2018-11-02T13:36:37.781Z,70
2018-11-02T13:37:35.676Z,73
2018-11-02T13:38:36.311Z,78
2018-11-02T13:39:36.374Z,76
2018-11-02T13:40:35.934Z,73
2018-11-02T13:41:35.823Z,72
2018-11-02T13:42:35.350Z,73
2018-11-02T13:43:36.207Z,74
2018-11-02T13:44:35.938Z,77
2018-11-02T13:45:36.271Z,80
2018-11-02T13:46:35.973Z,84
2018-11-02T13:47:35.677Z,86
2018-11-02T13:48:36.269Z,82
2018-11-02T13:49:36.479Z,76
2018-11-02T13:50:59.458Z,66
2018-11-02T13:52:00.280Z,61
2018-11-02T13:53:00.087Z,57
2018-11-02T13:53:59.942Z,56
2018-11-02T13:54:59.840Z,55
2018-11-02T13:56:00.299Z,54
2018-11-02T13:56:59.936Z,51
2018-11-02T13:58:22.992Z,47
2018-11-02T13:59:23.511Z,46
2018-11-02T14:00:23.459Z,45
2018-11-02T14:01:23.323Z,44
2018-11-02T14:02:23.109Z,42
2018-11-02T14:03:24.139Z,40
2018-11-02T14:04:23.744Z,38
2018-11-02T14:05:23.316Z,38
2018-11-02T14:06:23.006Z,39
2018-11-02T14:07:23.930Z,40
2018-11-02T14:08:23.568Z,43
2018-11-02T14:09:47.088Z,45
2018-11-02T14:10:47.772Z,45
2018-11-02T14:11:47.762Z,44
2018-11-02T14:12:47.630Z,44
2018-11-02T14:13:47.141Z,43
2018-11-02T14:14:47.655Z,44
2018-11-02T14:15:47.099Z,45
2018-11-02T14:16:47.846Z,48
2018-11-02T14:17:47.646Z,50
2018-11-02T14:18:47.290Z,52
2018-11-02T14:19:47.042Z,53
2018-11-02T14:20:47.748Z,52
2018-11-02T14:21:47.652Z,51
2018-11-02T14:22:47.462Z,50
2018-11-02T14:23:47.154Z,48
2018-11-02T14:24:47.887Z,47
2018-11-02T14:25:47.242Z,46
2018-11-02T14:26:47.003Z,45
2018-11-02T14:27:47.866Z,44
2018-11-02T14:28:47.698Z,43
2018-11-02T14:29:47.428Z,43
2018-11-02T14:30:47.160Z,43
2018-11-02T14:31:47.240Z,42
2018-11-02T14:32:46.955Z,42
2018-11-02T14:33:47.678Z,42
2018-11-02T14:34:47.374Z,41
2018-11-02T14:35:46.888Z,40
2018-11-02T14:37:08.801Z,40
2018-11-02T14:38:09.611Z,40
2018-11-02T14:39:35.030Z,40
2018-11-02T14:40:35.935Z,40
2018-11-02T14:41:57.264Z,39
2018-11-02T14:42:57.941Z,45
2018-11-02T14:44:19.760Z,41
2018-11-02T14:45:20.800Z,36
2018-11-02T14:46:41.373Z,33
2018-11-02T14:47:42.391Z,32
2018-11-02T14:48:42.239Z,34
2018-11-02T14:49:42.192Z,32
2018-11-02T14:50:41.764Z,32
2018-11-02T14:51:41.497Z,31
2018-11-02T14:52:41.392Z,30
2018-11-02T14:53:41.257Z,29
2018-11-02T14:54:41.882Z,29
2018-11-02T14:55:42.006Z,29
2018-11-02T14:56:41.857Z,29
2018-11-02T14:58:05.292Z,29
2018-11-02T14:59:05.862Z,29
2018-11-02T15:00:05.855Z,30
2018-11-02T15:01:05.661Z,30
2018-11-02T15:02:05.504Z,30
2018-11-02T15:03:05.483Z,31
2018-11-02T15:04:05.318Z,31
2018-11-02T15:05:05.970Z,32
2018-11-02T15:06:06.848Z,32
2018-11-02T15:07:05.933Z,32
2018-11-02T15:08:05.764Z,31
2018-11-02T15:09:27.280Z,31
2018-11-02T15:10:28.120Z,27
2018-11-02T15:11:27.758Z,25
2018-11-02T15:12:27.425Z,24
2018-11-02T15:13:27.941Z,23
2018-11-02T15:14:27.317Z,22
2018-11-02T15:15:28.530Z,21
2018-11-02T15:16:27.393Z,21
2018-11-02T15:17:49.391Z,20
2018-11-02T15:18:50.005Z,19
2018-11-02T15:19:49.740Z,18